Main page
METAR-TAF:

METAR-TAF

Airports :

Sogndal Airport. Haukåsen

Sogndal, Norway

latitude: 61-09N, longitude: 007-08E, elevation: 49 m

Current weather observation

The report was made 43 minutes ago, at 17:20 UTC
Wind 12 kt from the West
Temperature 17°C
Humidity 52%
Pressure 1014 hPa
Visibility 10 km or more
Few clouds at a height of 5500 ft

METAR: ENSG 231720Z 28012KT 9999 FEW055 17/07 Q1014 RMK WIND 3806FT 28014KT

Time: 20:03 (18:03 UTC)

Forecast

The report was made 4 hours and 3 minutes ago, at 14:00 UTC
Forecast valid from 23 at 16 UTC to 23 at 21 UTC
Wind 6 kt from the West/Southwest
Visibility 10 km or more
Few clouds at a height of 5000 ft
Temporary
from 23 at 16 UTC to 23 at 21 UTC
Scattered clouds at a height of 1500 ft
Scattered clouds at a height of 4000 ft, Cumulonimbus.
rain showers,

TAF: ENSG 231400Z 2316/2321 25006KT 9999 FEW050 TEMPO 2316/2321 SHRA SCT015 SCT040CB

Weather observations and forecasts of more than 4000 airports (METAR and TAF reports).

The available stations are represented by yellow and red dots on the map.

Hover mouse over dot to see the name of the station.

Then click to see weather observations and forecasts.

To change the map : click on the green buttons with a black cross to zoom in, on the green button with a dash to zoom out, or on the green arrows for adjacent maps.


METAR-TAF: